Terminal Aerodrome Forecast
Issued by NWS Dodge City, KS

Home | Current Version | Previous Version | Text Only | Print | Product List | Glossary Off
Versions: 1 2 3 4 5 6 7 8 9 10 11 12 13 14 15 16 17 18 19 20 21 22 23 24 25 26 27 28 29 30 31

000
FTUS43 KDDC 251400 AAA
TAFDDC
TAF AMD
KDDC 251409Z 2514/2612 21019G26KT P6SM SKC
     FM251500 21020G30KT P6SM SKC
     FM252100 33012KT P6SM SCT200
     FM252300 VRB06KT P6SM SKC=

USA.gov is the U.S. government's official web portal to all federal, state and local government web resources and services.